Terminal Aerodrome Forecast
Issued by NWS

Current Version | Previous Version | Text Only | Print | Product List | Glossary On
Versions: 1 2 3 4 5 6 7 8 9 10 11 12 13 14 15 16 17
225
FTUS42 KJAX 121721
TAFCRG
TAF
KCRG 121721Z 1218/1318 24015G25KT P6SM SCT040
     FM130000 25009KT P6SM FEW040 BKN250
     FM130600 31008KT P6SM SKC
     FM131600 35012KT P6SM SKC=

USA.gov is the U.S. government's official web portal to all federal, state and local government web resources and services.